sensor_id;sensor_type;location;lat;lon;timestamp;P1;durP1;ratioP1;P2;durP2;ratioP2
66521;SDS011;53349;53.538;8.584;2023-03-01T00:00:14;38.50;;;14.20;;
66521;SDS011;53349;53.538;8.584;2023-03-01T00:02:43;37.35;;;13.35;;
66521;SDS011;53349;53.538;8.584;2023-03-01T00:05:08;35.37;;;13.90;;
66521;SDS011;53349;53.538;8.584;2023-03-01T00:07:35;35.13;;;12.60;;
66521;SDS011;53349;53.538;8.584;2023-03-01T00:10:00;31.37;;;12.67;;
66521;SDS011;53349;53.538;8.584;2023-03-01T00:12:25;35.37;;;13.30;;
66521;SDS011;53349;53.538;8.584;2023-03-01T00:14:51;33.13;;;12.93;;
66521;SDS011;53349;53.538;8.584;2023-03-01T00:17:16;32.23;;;12.83;;
66521;SDS011;53349;53.538;8.584;2023-03-01T00:19:42;34.67;;;12.97;;
66521;SDS011;53349;53.538;8.584;2023-03-01T00:22:07;35.10;;;12.63;;
66521;SDS011;53349;53.538;8.584;2023-03-01T00:24:33;34.08;;;12.65;;
66521;SDS011;53349;53.538;8.584;2023-03-01T00:26:59;35.87;;;13.17;;
66521;SDS011;53349;53.538;8.584;2023-03-01T00:29:25;30.65;;;12.63;;
66521;SDS011;53349;53.538;8.584;2023-03-01T00:31:52;34.87;;;13.37;;
66521;SDS011;53349;53.538;8.584;2023-03-01T00:34:19;34.47;;;12.87;;
66521;SDS011;53349;53.538;8.584;2023-03-01T00:36:44;31.88;;;13.00;;
66521;SDS011;53349;53.538;8.584;2023-03-01T00:39:11;34.63;;;13.27;;
66521;SDS011;53349;53.538;8.584;2023-03-01T00:41:41;30.15;;;12.45;;
66521;SDS011;53349;53.538;8.584;2023-03-01T00:44:07;35.57;;;14.27;;
66521;SDS011;53349;53.538;8.584;2023-03-01T00:46:34;32.92;;;13.35;;
66521;SDS011;53349;53.538;8.584;2023-03-01T00:48:59;33.70;;;13.05;;
66521;SDS011;53349;53.538;8.584;2023-03-01T00:51:26;32.40;;;13.03;;
66521;SDS011;53349;53.538;8.584;2023-03-01T00:53:53;29.95;;;12.15;;
66521;SDS011;53349;53.538;8.584;2023-03-01T00:56:20;35.58;;;13.43;;
66521;SDS011;53349;53.538;8.584;2023-03-01T00:58:46;35.27;;;13.50;;
66521;SDS011;53349;53.538;8.584;2023-03-01T01:01:18;32.78;;;12.75;;
66521;SDS011;53349;53.538;8.584;2023-03-01T01:03:49;35.13;;;14.00;;
66521;SDS011;53349;53.538;8.584;2023-03-01T01:06:36;32.92;;;13.15;;
66521;SDS011;53349;53.538;8.584;2023-03-01T01:09:06;33.97;;;13.13;;
66521;SDS011;53349;53.538;8.584;2023-03-01T01:11:32;29.20;;;13.27;;
66521;SDS011;53349;53.538;8.584;2023-03-01T01:14:00;34.33;;;13.82;;
66521;SDS011;53349;53.538;8.584;2023-03-01T01:16:26;31.02;;;13.13;;
66521;SDS011;53349;53.538;8.584;2023-03-01T01:18:58;35.70;;;13.85;;
66521;SDS011;53349;53.538;8.584;2023-03-01T01:21:27;37.30;;;14.20;;
66521;SDS011;53349;53.538;8.584;2023-03-01T01:23:54;34.45;;;13.10;;
66521;SDS011;53349;53.538;8.584;2023-03-01T01:26:21;34.53;;;14.07;;
66521;SDS011;53349;53.538;8.584;2023-03-01T01:28:48;35.00;;;13.60;;
66521;SDS011;53349;53.538;8.584;2023-03-01T01:31:17;38.67;;;14.88;;
66521;SDS011;53349;53.538;8.584;2023-03-01T01:33:43;31.70;;;13.52;;
66521;SDS011;53349;53.538;8.584;2023-03-01T01:36:10;33.08;;;14.40;;
66521;SDS011;53349;53.538;8.584;2023-03-01T01:38:36;36.80;;;14.25;;
66521;SDS011;53349;53.538;8.584;2023-03-01T01:41:03;38.20;;;13.83;;
66521;SDS011;53349;53.538;8.584;2023-03-01T01:43:40;33.78;;;13.75;;
66521;SDS011;53349;53.538;8.584;2023-03-01T01:46:28;30.45;;;13.45;;
66521;SDS011;53349;53.538;8.584;2023-03-01T01:49:00;33.85;;;13.48;;
66521;SDS011;53349;53.538;8.584;2023-03-01T01:51:30;34.58;;;13.23;;
66521;SDS011;53349;53.538;8.584;2023-03-01T01:54:00;36.90;;;13.33;;
66521;SDS011;53349;53.538;8.584;2023-03-01T01:56:26;31.23;;;12.98;;
66521;SDS011;53349;53.538;8.584;2023-03-01T01:58:54;34.83;;;13.17;;
66521;SDS011;53349;53.538;8.584;2023-03-01T02:01:23;33.47;;;13.30;;
66521;SDS011;53349;53.538;8.584;2023-03-01T02:03:48;33.15;;;13.65;;
66521;SDS011;53349;53.538;8.584;2023-03-01T02:08:54;33.33;;;12.63;;
66521;SDS011;53349;53.538;8.584;2023-03-01T02:11:26;30.00;;;12.18;;
66521;SDS011;53349;53.538;8.584;2023-03-01T02:13:52;29.30;;;11.75;;
66521;SDS011;53349;53.538;8.584;2023-03-01T02:16:19;27.98;;;11.40;;
66521;SDS011;53349;53.538;8.584;2023-03-01T02:18:45;30.97;;;12.67;;
66521;SDS011;53349;53.538;8.584;2023-03-01T02:24:17;28.73;;;12.15;;
66521;SDS011;53349;53.538;8.584;2023-03-01T02:27:04;31.65;;;12.20;;
66521;SDS011;53349;53.538;8.584;2023-03-01T02:29:29;32.03;;;13.07;;
66521;SDS011;53349;53.538;8.584;2023-03-01T02:31:55;29.63;;;12.47;;
66521;SDS011;53349;53.538;8.584;2023-03-01T02:34:23;33.05;;;13.27;;
66521;SDS011;53349;53.538;8.584;2023-03-01T02:36:51;29.38;;;12.73;;
66521;SDS011;53349;53.538;8.584;2023-03-01T02:39:31;31.50;;;13.48;;
66521;SDS011;53349;53.538;8.584;2023-03-01T02:42:00;29.63;;;12.77;;
66521;SDS011;53349;53.538;8.584;2023-03-01T02:44:30;30.65;;;13.20;;
66521;SDS011;53349;53.538;8.584;2023-03-01T02:46:58;30.45;;;12.82;;
66521;SDS011;53349;53.538;8.584;2023-03-01T02:49:28;30.55;;;12.75;;
66521;SDS011;53349;53.538;8.584;2023-03-01T02:52:11;31.92;;;12.35;;
66521;SDS011;53349;53.538;8.584;2023-03-01T02:57:34;32.58;;;12.35;;
66521;SDS011;53349;53.538;8.584;2023-03-01T03:00:04;25.92;;;11.57;;
66521;SDS011;53349;53.538;8.584;2023-03-01T03:02:33;25.52;;;11.52;;
66521;SDS011;53349;53.538;8.584;2023-03-01T03:04:59;31.27;;;12.20;;
66521;SDS011;53349;53.538;8.584;2023-03-01T03:07:24;26.37;;;12.07;;
66521;SDS011;53349;53.538;8.584;2023-03-01T03:09:50;26.53;;;11.63;;
66521;SDS011;53349;53.538;8.584;2023-03-01T03:12:15;27.03;;;12.60;;
66521;SDS011;53349;53.538;8.584;2023-03-01T03:14:42;27.00;;;12.02;;
66521;SDS011;53349;53.538;8.584;2023-03-01T03:17:07;25.23;;;11.07;;
66521;SDS011;53349;53.538;8.584;2023-03-01T03:19:33;28.50;;;11.73;;
66521;SDS011;53349;53.538;8.584;2023-03-01T03:21:58;25.00;;;10.90;;
66521;SDS011;53349;53.538;8.584;2023-03-01T03:24:24;26.80;;;11.50;;
66521;SDS011;53349;53.538;8.584;2023-03-01T03:26:49;26.30;;;12.07;;
66521;SDS011;53349;53.538;8.584;2023-03-01T03:29:19;22.85;;;10.98;;
66521;SDS011;53349;53.538;8.584;2023-03-01T03:31:44;23.80;;;10.47;;
66521;SDS011;53349;53.538;8.584;2023-03-01T03:34:16;25.15;;;10.82;;
66521;SDS011;53349;53.538;8.584;2023-03-01T03:36:42;25.27;;;11.03;;
66521;SDS011;53349;53.538;8.584;2023-03-01T03:39:07;23.60;;;10.15;;
66521;SDS011;53349;53.538;8.584;2023-03-01T03:41:34;22.10;;;10.13;;
66521;SDS011;53349;53.538;8.584;2023-03-01T03:44:00;27.10;;;10.85;;
66521;SDS011;53349;53.538;8.584;2023-03-01T03:46:25;23.50;;;10.97;;
66521;SDS011;53349;53.538;8.584;2023-03-01T03:48:52;22.35;;;10.77;;
66521;SDS011;53349;53.538;8.584;2023-03-01T03:51:19;30.33;;;11.50;;
66521;SDS011;53349;53.538;8.584;2023-03-01T03:53:44;24.13;;;10.88;;
66521;SDS011;53349;53.538;8.584;2023-03-01T03:56:13;30.93;;;11.73;;
66521;SDS011;53349;53.538;8.584;2023-03-01T03:58:39;23.40;;;9.95;;
66521;SDS011;53349;53.538;8.584;2023-03-01T04:01:05;22.80;;;10.10;;
66521;SDS011;53349;53.538;8.584;2023-03-01T04:03:31;22.67;;;9.90;;
66521;SDS011;53349;53.538;8.584;2023-03-01T04:05:58;24.13;;;11.38;;
66521;SDS011;53349;53.538;8.584;2023-03-01T04:08:26;23.73;;;10.00;;
66521;SDS011;53349;53.538;8.584;2023-03-01T04:10:53;28.58;;;10.80;;
66521;SDS011;53349;53.538;8.584;2023-03-01T04:13:23;25.42;;;10.77;;
66521;SDS011;53349;53.538;8.584;2023-03-01T04:15:53;24.80;;;11.23;;
66521;SDS011;53349;53.538;8.584;2023-03-01T04:18:21;27.40;;;11.25;;
66521;SDS011;53349;53.538;8.584;2023-03-01T04:20:47;25.20;;;11.53;;
66521;SDS011;53349;53.538;8.584;2023-03-01T04:23:16;27.27;;;11.07;;
66521;SDS011;53349;53.538;8.584;2023-03-01T04:25:53;26.63;;;10.43;;
66521;SDS011;53349;53.538;8.584;2023-03-01T04:30:50;27.63;;;11.75;;
66521;SDS011;53349;53.538;8.584;2023-03-01T04:33:17;28.33;;;12.07;;
66521;SDS011;53349;53.538;8.584;2023-03-01T04:35:44;27.35;;;11.48;;
66521;SDS011;53349;53.538;8.584;2023-03-01T04:38:12;25.50;;;11.87;;
66521;SDS011;53349;53.538;8.584;2023-03-01T04:40:38;30.17;;;11.88;;
66521;SDS011;53349;53.538;8.584;2023-03-01T04:43:04;28.92;;;12.43;;
66521;SDS011;53349;53.538;8.584;2023-03-01T04:45:31;32.63;;;12.73;;
66521;SDS011;53349;53.538;8.584;2023-03-01T04:47:57;26.38;;;12.18;;
66521;SDS011;53349;53.538;8.584;2023-03-01T04:50:22;28.90;;;12.17;;
66521;SDS011;53349;53.538;8.584;2023-03-01T04:52:48;27.17;;;12.48;;
66521;SDS011;53349;53.538;8.584;2023-03-01T04:55:15;27.67;;;11.48;;
66521;SDS011;53349;53.538;8.584;2023-03-01T04:57:41;25.97;;;10.83;;
66521;SDS011;53349;53.538;8.584;2023-03-01T05:00:09;21.80;;;10.77;;
66521;SDS011;53349;53.538;8.584;2023-03-01T05:02:36;23.70;;;10.73;;
66521;SDS011;53349;53.538;8.584;2023-03-01T05:05:02;23.50;;;11.67;;
66521;SDS011;53349;53.538;8.584;2023-03-01T05:07:30;23.58;;;11.18;;
66521;SDS011;53349;53.538;8.584;2023-03-01T05:09:56;24.83;;;11.50;;
66521;SDS011;53349;53.538;8.584;2023-03-01T05:12:23;24.48;;;11.80;;
66521;SDS011;53349;53.538;8.584;2023-03-01T05:14:49;22.87;;;10.83;;
66521;SDS011;53349;53.538;8.584;2023-03-01T05:17:14;23.38;;;10.65;;
66521;SDS011;53349;53.538;8.584;2023-03-01T05:19:41;26.83;;;11.77;;
66521;SDS011;53349;53.538;8.584;2023-03-01T05:22:06;28.90;;;12.02;;
66521;SDS011;53349;53.538;8.584;2023-03-01T05:24:37;24.77;;;11.83;;
66521;SDS011;53349;53.538;8.584;2023-03-01T05:27:02;26.17;;;11.57;;
66521;SDS011;53349;53.538;8.584;2023-03-01T05:29:30;23.85;;;11.52;;
66521;SDS011;53349;53.538;8.584;2023-03-01T05:31:58;28.48;;;10.93;;
66521;SDS011;53349;53.538;8.584;2023-03-01T05:34:26;30.38;;;11.85;;
66521;SDS011;53349;53.538;8.584;2023-03-01T05:36:53;26.05;;;12.00;;
66521;SDS011;53349;53.538;8.584;2023-03-01T05:39:20;24.37;;;10.90;;
66521;SDS011;53349;53.538;8.584;2023-03-01T05:41:46;29.40;;;12.20;;
66521;SDS011;53349;53.538;8.584;2023-03-01T05:44:13;30.02;;;12.20;;
66521;SDS011;53349;53.538;8.584;2023-03-01T05:46:41;29.40;;;11.23;;
66521;SDS011;53349;53.538;8.584;2023-03-01T05:49:06;28.65;;;12.27;;
66521;SDS011;53349;53.538;8.584;2023-03-01T05:51:32;28.38;;;11.65;;
66521;SDS011;53349;53.538;8.584;2023-03-01T05:53:57;29.50;;;11.73;;
66521;SDS011;53349;53.538;8.584;2023-03-01T05:56:23;28.67;;;12.63;;
66521;SDS011;53349;53.538;8.584;2023-03-01T05:58:48;32.20;;;12.98;;
66521;SDS011;53349;53.538;8.584;2023-03-01T06:01:17;29.40;;;12.50;;
66521;SDS011;53349;53.538;8.584;2023-03-01T06:03:43;29.77;;;12.75;;
66521;SDS011;53349;53.538;8.584;2023-03-01T06:06:09;34.65;;;13.75;;
66521;SDS011;53349;53.538;8.584;2023-03-01T06:08:36;30.80;;;13.02;;
66521;SDS011;53349;53.538;8.584;2023-03-01T06:11:02;29.37;;;12.47;;
66521;SDS011;53349;53.538;8.584;2023-03-01T06:13:28;31.50;;;13.47;;
66521;SDS011;53349;53.538;8.584;2023-03-01T06:15:56;31.52;;;13.57;;
66521;SDS011;53349;53.538;8.584;2023-03-01T06:18:21;28.97;;;12.57;;
66521;SDS011;53349;53.538;8.584;2023-03-01T06:20:54;29.23;;;12.57;;
66521;SDS011;53349;53.538;8.584;2023-03-01T06:23:22;29.23;;;13.23;;
66521;SDS011;53349;53.538;8.584;2023-03-01T06:25:48;35.78;;;14.30;;
66521;SDS011;53349;53.538;8.584;2023-03-01T06:28:14;43.17;;;14.40;;
66521;SDS011;53349;53.538;8.584;2023-03-01T06:30:40;37.20;;;13.85;;
66521;SDS011;53349;53.538;8.584;2023-03-01T06:33:05;37.77;;;14.33;;
66521;SDS011;53349;53.538;8.584;2023-03-01T06:35:34;40.13;;;14.23;;
66521;SDS011;53349;53.538;8.584;2023-03-01T06:38:02;34.50;;;14.60;;
66521;SDS011;53349;53.538;8.584;2023-03-01T06:40:33;30.90;;;13.52;;
66521;SDS011;53349;53.538;8.584;2023-03-01T06:43:07;30.33;;;13.68;;
66521;SDS011;53349;53.538;8.584;2023-03-01T06:45:32;37.43;;;15.00;;
66521;SDS011;53349;53.538;8.584;2023-03-01T06:48:06;34.07;;;14.93;;
66521;SDS011;53349;53.538;8.584;2023-03-01T06:50:34;35.88;;;14.02;;
66521;SDS011;53349;53.538;8.584;2023-03-01T06:53:00;35.78;;;16.20;;
66521;SDS011;53349;53.538;8.584;2023-03-01T06:55:27;42.30;;;15.95;;
66521;SDS011;53349;53.538;8.584;2023-03-01T06:58:02;39.27;;;15.67;;
66521;SDS011;53349;53.538;8.584;2023-03-01T07:00:31;37.05;;;15.02;;
66521;SDS011;53349;53.538;8.584;2023-03-01T07:02:58;50.70;;;15.82;;
66521;SDS011;53349;53.538;8.584;2023-03-01T07:05:25;45.67;;;16.40;;
66521;SDS011;53349;53.538;8.584;2023-03-01T07:07:52;45.35;;;16.08;;
66521;SDS011;53349;53.538;8.584;2023-03-01T07:10:18;46.95;;;16.92;;
66521;SDS011;53349;53.538;8.584;2023-03-01T07:12:44;41.38;;;15.45;;
66521;SDS011;53349;53.538;8.584;2023-03-01T07:15:09;41.63;;;15.53;;
66521;SDS011;53349;53.538;8.584;2023-03-01T07:17:35;37.87;;;15.33;;
66521;SDS011;53349;53.538;8.584;2023-03-01T07:20:01;49.45;;;16.75;;
66521;SDS011;53349;53.538;8.584;2023-03-01T07:22:26;45.43;;;16.20;;
66521;SDS011;53349;53.538;8.584;2023-03-01T07:24:51;44.43;;;15.33;;
66521;SDS011;53349;53.538;8.584;2023-03-01T07:27:17;38.70;;;15.27;;
66521;SDS011;53349;53.538;8.584;2023-03-01T07:29:42;39.37;;;14.10;;
66521;SDS011;53349;53.538;8.584;2023-03-01T07:32:08;38.97;;;13.93;;
66521;SDS011;53349;53.538;8.584;2023-03-01T07:34:37;43.33;;;15.02;;
66521;SDS011;53349;53.538;8.584;2023-03-01T07:37:05;39.95;;;15.05;;
66521;SDS011;53349;53.538;8.584;2023-03-01T07:39:33;41.88;;;15.23;;
66521;SDS011;53349;53.538;8.584;2023-03-01T07:42:04;43.83;;;15.63;;
66521;SDS011;53349;53.538;8.584;2023-03-01T07:44:29;43.23;;;15.53;;
66521;SDS011;53349;53.538;8.584;2023-03-01T07:46:55;43.30;;;15.20;;
66521;SDS011;53349;53.538;8.584;2023-03-01T07:49:21;45.47;;;16.30;;
66521;SDS011;53349;53.538;8.584;2023-03-01T07:51:46;45.20;;;16.38;;
66521;SDS011;53349;53.538;8.584;2023-03-01T07:54:18;37.13;;;14.60;;
66521;SDS011;53349;53.538;8.584;2023-03-01T07:56:44;34.67;;;14.30;;
66521;SDS011;53349;53.538;8.584;2023-03-01T07:59:10;35.05;;;14.48;;
66521;SDS011;53349;53.538;8.584;2023-03-01T08:01:35;31.73;;;12.57;;
66521;SDS011;53349;53.538;8.584;2023-03-01T08:04:01;30.67;;;11.83;;
66521;SDS011;53349;53.538;8.584;2023-03-01T08:06:29;26.25;;;11.30;;
66521;SDS011;53349;53.538;8.584;2023-03-01T08:08:57;26.02;;;11.75;;
66521;SDS011;53349;53.538;8.584;2023-03-01T08:11:22;25.90;;;11.67;;
66521;SDS011;53349;53.538;8.584;2023-03-01T08:13:48;30.58;;;12.23;;
66521;SDS011;53349;53.538;8.584;2023-03-01T08:16:18;27.53;;;11.37;;
66521;SDS011;53349;53.538;8.584;2023-03-01T08:18:44;29.88;;;12.82;;
66521;SDS011;53349;53.538;8.584;2023-03-01T08:21:10;29.10;;;11.90;;
66521;SDS011;53349;53.538;8.584;2023-03-01T08:23:39;29.55;;;12.40;;
66521;SDS011;53349;53.538;8.584;2023-03-01T08:26:12;26.23;;;11.90;;
66521;SDS011;53349;53.538;8.584;2023-03-01T08:28:41;28.33;;;12.60;;
66521;SDS011;53349;53.538;8.584;2023-03-01T08:31:13;28.33;;;12.75;;
66521;SDS011;53349;53.538;8.584;2023-03-01T08:33:40;27.98;;;12.95;;
66521;SDS011;53349;53.538;8.584;2023-03-01T08:36:06;29.50;;;12.37;;
66521;SDS011;53349;53.538;8.584;2023-03-01T08:38:32;32.67;;;13.33;;
66521;SDS011;53349;53.538;8.584;2023-03-01T08:41:02;31.25;;;12.65;;
66521;SDS011;53349;53.538;8.584;2023-03-01T08:43:28;29.90;;;13.10;;
66521;SDS011;53349;53.538;8.584;2023-03-01T08:45:55;33.35;;;13.55;;
66521;SDS011;53349;53.538;8.584;2023-03-01T08:48:20;29.93;;;14.07;;
66521;SDS011;53349;53.538;8.584;2023-03-01T08:50:46;33.63;;;13.82;;
66521;SDS011;53349;53.538;8.584;2023-03-01T08:53:12;31.27;;;14.23;;
66521;SDS011;53349;53.538;8.584;2023-03-01T08:55:37;35.30;;;15.60;;
66521;SDS011;53349;53.538;8.584;2023-03-01T08:58:03;34.77;;;14.00;;
66521;SDS011;53349;53.538;8.584;2023-03-01T09:00:30;36.70;;;14.57;;
66521;SDS011;53349;53.538;8.584;2023-03-01T09:02:55;39.83;;;15.20;;
66521;SDS011;53349;53.538;8.584;2023-03-01T09:05:20;34.83;;;14.67;;
66521;SDS011;53349;53.538;8.584;2023-03-01T09:07:46;32.70;;;15.43;;
66521;SDS011;53349;53.538;8.584;2023-03-01T09:10:12;35.38;;;15.32;;
66521;SDS011;53349;53.538;8.584;2023-03-01T09:12:37;32.17;;;15.53;;
66521;SDS011;53349;53.538;8.584;2023-03-01T09:15:03;34.22;;;15.27;;
66521;SDS011;53349;53.538;8.584;2023-03-01T09:17:30;41.00;;;16.20;;
66521;SDS011;53349;53.538;8.584;2023-03-01T09:19:56;38.33;;;16.98;;
66521;SDS011;53349;53.538;8.584;2023-03-01T09:22:21;37.58;;;15.93;;
66521;SDS011;53349;53.538;8.584;2023-03-01T09:24:46;39.50;;;15.77;;
66521;SDS011;53349;53.538;8.584;2023-03-01T09:27:12;36.60;;;16.13;;
66521;SDS011;53349;53.538;8.584;2023-03-01T09:29:40;32.85;;;14.05;;
66521;SDS011;53349;53.538;8.584;2023-03-01T09:32:07;33.75;;;15.00;;
66521;SDS011;53349;53.538;8.584;2023-03-01T09:34:36;32.10;;;13.60;;
66521;SDS011;53349;53.538;8.584;2023-03-01T09:37:07;25.92;;;12.32;;
66521;SDS011;53349;53.538;8.584;2023-03-01T09:39:38;28.80;;;12.30;;
66521;SDS011;53349;53.538;8.584;2023-03-01T09:42:06;30.00;;;12.93;;
66521;SDS011;53349;53.538;8.584;2023-03-01T09:47:20;32.13;;;13.40;;
66521;SDS011;53349;53.538;8.584;2023-03-01T09:55:14;31.08;;;13.27;;
66521;SDS011;53349;53.538;8.584;2023-03-01T10:00:57;30.27;;;13.55;;
66521;SDS011;53349;53.538;8.584;2023-03-01T10:03:48;27.65;;;12.40;;
66521;SDS011;53349;53.538;8.584;2023-03-01T10:06:25;25.57;;;11.70;;
66521;SDS011;53349;53.538;8.584;2023-03-01T10:08:53;23.13;;;11.40;;
66521;SDS011;53349;53.538;8.584;2023-03-01T10:11:39;23.60;;;9.95;;
66521;SDS011;53349;53.538;8.584;2023-03-01T10:14:23;21.98;;;9.95;;
66521;SDS011;53349;53.538;8.584;2023-03-01T10:20:32;16.38;;;8.82;;
66521;SDS011;53349;53.538;8.584;2023-03-01T10:23:10;18.40;;;9.93;;
66521;SDS011;53349;53.538;8.584;2023-03-01T10:31:27;21.75;;;11.65;;
66521;SDS011;53349;53.538;8.584;2023-03-01T10:34:10;24.67;;;12.02;;
66521;SDS011;53349;53.538;8.584;2023-03-01T10:36:53;22.67;;;11.90;;
66521;SDS011;53349;53.538;8.584;2023-03-01T10:39:24;21.80;;;11.23;;
66521;SDS011;53349;53.538;8.584;2023-03-01T10:41:54;21.80;;;10.85;;
66521;SDS011;53349;53.538;8.584;2023-03-01T10:47:03;18.27;;;9.85;;
66521;SDS011;53349;53.538;8.584;2023-03-01T10:49:28;19.90;;;10.30;;
66521;SDS011;53349;53.538;8.584;2023-03-01T10:51:54;17.27;;;10.07;;
66521;SDS011;53349;53.538;8.584;2023-03-01T10:54:22;19.75;;;10.07;;
66521;SDS011;53349;53.538;8.584;2023-03-01T10:56:54;17.67;;;9.32;;
66521;SDS011;53349;53.538;8.584;2023-03-01T10:59:22;17.80;;;10.20;;
66521;SDS011;53349;53.538;8.584;2023-03-01T11:04:59;16.55;;;8.77;;
66521;SDS011;53349;53.538;8.584;2023-03-01T11:07:48;17.77;;;8.98;;
66521;SDS011;53349;53.538;8.584;2023-03-01T11:10:18;18.13;;;9.20;;
66521;SDS011;53349;53.538;8.584;2023-03-01T11:12:54;18.63;;;9.95;;
66521;SDS011;53349;53.538;8.584;2023-03-01T11:15:39;17.70;;;9.73;;
66521;SDS011;53349;53.538;8.584;2023-03-01T11:18:05;22.85;;;10.85;;
66521;SDS011;53349;53.538;8.584;2023-03-01T11:20:48;19.30;;;10.77;;
66521;SDS011;53349;53.538;8.584;2023-03-01T11:23:18;18.85;;;10.73;;
66521;SDS011;53349;53.538;8.584;2023-03-01T11:25:51;20.42;;;11.32;;
66521;SDS011;53349;53.538;8.584;2023-03-01T11:28:25;22.65;;;11.50;;
66521;SDS011;53349;53.538;8.584;2023-03-01T11:38:30;21.33;;;10.25;;
66521;SDS011;53349;53.538;8.584;2023-03-01T11:41:18;15.63;;;9.32;;
66521;SDS011;53349;53.538;8.584;2023-03-01T12:12:53;19.35;;;10.15;;
66521;SDS011;53349;53.538;8.584;2023-03-01T12:15:44;20.17;;;10.40;;
66521;SDS011;53349;53.538;8.584;2023-03-01T12:43:47;18.67;;;9.48;;
66521;SDS011;53349;53.538;8.584;2023-03-01T12:49:12;22.08;;;11.25;;
66521;SDS011;53349;53.538;8.584;2023-03-01T12:51:44;21.20;;;10.63;;
66521;SDS011;53349;53.538;8.584;2023-03-01T12:54:20;19.23;;;10.70;;
66521;SDS011;53349;53.538;8.584;2023-03-01T12:56:51;21.02;;;10.43;;
66521;SDS011;53349;53.538;8.584;2023-03-01T12:59:31;24.27;;;11.18;;
66521;SDS011;53349;53.538;8.584;2023-03-01T13:02:13;20.27;;;10.18;;
66521;SDS011;53349;53.538;8.584;2023-03-01T13:10:17;20.85;;;10.35;;
66521;SDS011;53349;53.538;8.584;2023-03-01T13:17:58;23.27;;;11.02;;
66521;SDS011;53349;53.538;8.584;2023-03-01T13:20:34;21.25;;;10.48;;
66521;SDS011;53349;53.538;8.584;2023-03-01T13:30:59;22.50;;;10.48;;
66521;SDS011;53349;53.538;8.584;2023-03-01T13:35:56;21.30;;;10.43;;
66521;SDS011;53349;53.538;8.584;2023-03-01T13:46:48;20.88;;;9.88;;
66521;SDS011;53349;53.538;8.584;2023-03-01T13:49:20;21.63;;;9.95;;
66521;SDS011;53349;53.538;8.584;2023-03-01T13:51:51;18.95;;;9.63;;
66521;SDS011;53349;53.538;8.584;2023-03-01T13:54:39;18.50;;;9.02;;
66521;SDS011;53349;53.538;8.584;2023-03-01T13:57:04;17.48;;;9.00;;
66521;SDS011;53349;53.538;8.584;2023-03-01T13:59:30;21.52;;;9.63;;
66521;SDS011;53349;53.538;8.584;2023-03-01T14:01:57;19.58;;;9.68;;
66521;SDS011;53349;53.538;8.584;2023-03-01T14:04:25;20.27;;;9.93;;
66521;SDS011;53349;53.538;8.584;2023-03-01T14:07:16;21.20;;;9.60;;
66521;SDS011;53349;53.538;8.584;2023-03-01T14:09:44;19.08;;;9.20;;
66521;SDS011;53349;53.538;8.584;2023-03-01T14:13:00;20.58;;;9.90;;
66521;SDS011;53349;53.538;8.584;2023-03-01T14:18:11;18.42;;;9.30;;
66521;SDS011;53349;53.538;8.584;2023-03-01T14:20:47;18.17;;;9.07;;
66521;SDS011;53349;53.538;8.584;2023-03-01T14:23:13;18.63;;;8.63;;
66521;SDS011;53349;53.538;8.584;2023-03-01T14:25:52;18.98;;;9.57;;
66521;SDS011;53349;53.538;8.584;2023-03-01T14:28:29;17.75;;;9.02;;
66521;SDS011;53349;53.538;8.584;2023-03-01T14:31:03;17.70;;;8.95;;
66521;SDS011;53349;53.538;8.584;2023-03-01T14:33:57;17.63;;;8.73;;
66521;SDS011;53349;53.538;8.584;2023-03-01T14:36:27;18.13;;;8.70;;
66521;SDS011;53349;53.538;8.584;2023-03-01T14:38:54;19.83;;;8.98;;
66521;SDS011;53349;53.538;8.584;2023-03-01T14:41:20;17.40;;;8.97;;
66521;SDS011;53349;53.538;8.584;2023-03-01T14:43:51;18.70;;;9.00;;
66521;SDS011;53349;53.538;8.584;2023-03-01T14:46:21;16.33;;;8.30;;
66521;SDS011;53349;53.538;8.584;2023-03-01T14:51:37;17.80;;;9.02;;
66521;SDS011;53349;53.538;8.584;2023-03-01T14:54:39;17.70;;;8.45;;
66521;SDS011;53349;53.538;8.584;2023-03-01T14:57:04;15.77;;;8.10;;
66521;SDS011;53349;53.538;8.584;2023-03-01T14:59:32;17.02;;;8.27;;
66521;SDS011;53349;53.538;8.584;2023-03-01T15:01:58;17.27;;;8.43;;
66521;SDS011;53349;53.538;8.584;2023-03-01T15:04:24;18.00;;;7.88;;
66521;SDS011;53349;53.538;8.584;2023-03-01T15:06:51;18.15;;;8.70;;
66521;SDS011;53349;53.538;8.584;2023-03-01T15:09:17;16.20;;;8.17;;
66521;SDS011;53349;53.538;8.584;2023-03-01T15:11:44;16.45;;;8.23;;
66521;SDS011;53349;53.538;8.584;2023-03-01T15:14:26;19.27;;;9.27;;
66521;SDS011;53349;53.538;8.584;2023-03-01T15:16:53;17.38;;;8.45;;
66521;SDS011;53349;53.538;8.584;2023-03-01T15:19:19;18.33;;;8.48;;
66521;SDS011;53349;53.538;8.584;2023-03-01T15:21:47;18.95;;;8.40;;
66521;SDS011;53349;53.538;8.584;2023-03-01T15:24:25;18.65;;;8.48;;
66521;SDS011;53349;53.538;8.584;2023-03-01T15:26:58;19.13;;;8.15;;
66521;SDS011;53349;53.538;8.584;2023-03-01T15:29:26;18.40;;;9.20;;
66521;SDS011;53349;53.538;8.584;2023-03-01T15:31:58;18.67;;;7.80;;
66521;SDS011;53349;53.538;8.584;2023-03-01T15:34:34;18.45;;;8.35;;
66521;SDS011;53349;53.538;8.584;2023-03-01T15:40:21;21.38;;;8.52;;
66521;SDS011;53349;53.538;8.584;2023-03-01T15:42:49;20.20;;;8.80;;
66521;SDS011;53349;53.538;8.584;2023-03-01T15:47:52;19.67;;;8.50;;
66521;SDS011;53349;53.538;8.584;2023-03-01T15:50:26;20.50;;;8.65;;
66521;SDS011;53349;53.538;8.584;2023-03-01T15:52:55;15.85;;;7.40;;
66521;SDS011;53349;53.538;8.584;2023-03-01T15:55:24;18.75;;;8.05;;
66521;SDS011;53349;53.538;8.584;2023-03-01T15:57:57;18.53;;;7.63;;
66521;SDS011;53349;53.538;8.584;2023-03-01T16:00:27;16.58;;;7.43;;
66521;SDS011;53349;53.538;8.584;2023-03-01T16:02:53;14.32;;;6.72;;
66521;SDS011;53349;53.538;8.584;2023-03-01T16:05:20;17.13;;;7.20;;
66521;SDS011;53349;53.538;8.584;2023-03-01T16:07:50;17.98;;;6.95;;
66521;SDS011;53349;53.538;8.584;2023-03-01T16:10:16;17.70;;;6.55;;
66521;SDS011;53349;53.538;8.584;2023-03-01T16:12:42;14.73;;;6.90;;
66521;SDS011;53349;53.538;8.584;2023-03-01T16:15:16;15.97;;;6.43;;
66521;SDS011;53349;53.538;8.584;2023-03-01T16:17:43;14.48;;;6.15;;
66521;SDS011;53349;53.538;8.584;2023-03-01T16:20:09;12.57;;;5.73;;
66521;SDS011;53349;53.538;8.584;2023-03-01T16:22:34;15.90;;;6.45;;
66521;SDS011;53349;53.538;8.584;2023-03-01T16:25:01;14.05;;;5.93;;
66521;SDS011;53349;53.538;8.584;2023-03-01T16:27:26;15.27;;;6.07;;
66521;SDS011;53349;53.538;8.584;2023-03-01T16:29:52;14.63;;;5.43;;
66521;SDS011;53349;53.538;8.584;2023-03-01T16:32:17;14.57;;;5.75;;
66521;SDS011;53349;53.538;8.584;2023-03-01T16:34:43;15.30;;;5.67;;
66521;SDS011;53349;53.538;8.584;2023-03-01T16:37:08;11.93;;;5.30;;
66521;SDS011;53349;53.538;8.584;2023-03-01T16:39:40;14.45;;;5.80;;
66521;SDS011;53349;53.538;8.584;2023-03-01T16:42:05;14.67;;;5.50;;
66521;SDS011;53349;53.538;8.584;2023-03-01T16:44:30;14.43;;;5.17;;
66521;SDS011;53349;53.538;8.584;2023-03-01T16:46:56;12.40;;;5.65;;
66521;SDS011;53349;53.538;8.584;2023-03-01T16:49:22;14.53;;;5.60;;
66521;SDS011;53349;53.538;8.584;2023-03-01T16:51:47;13.98;;;5.47;;
66521;SDS011;53349;53.538;8.584;2023-03-01T16:54:14;14.15;;;6.25;;
66521;SDS011;53349;53.538;8.584;2023-03-01T16:56:39;12.93;;;5.60;;
66521;SDS011;53349;53.538;8.584;2023-03-01T16:59:06;14.63;;;5.88;;